Time;durP1;ratioP1;P1;durP2;ratioP2;P2;SDS_P1;SDS_P2;PMS_P1;PMS_P2;Temp;Humidity;BMP_temperature;BMP_pressure;BME280_temperature;BME280_humidity;BME280_pressure;Samples;Min_cycle;Max_cycle;Signal;HPM_P1;HPM_P2
2023/02/03 00:01:28;;;;;;;8.32;4.80;;;;;;;5.28;100.00;101123.28;5187529;28;20037;-72
2023/02/03 00:03:58;;;;;;;12.52;6.57;;;;;;;5.28;100.00;101123.28;5184803;28;20136;-72
2023/02/03 00:06:31;;;;;;;11.98;6.03;;;;;;;5.33;100.00;101117.22;5182632;28;20518;-72
2023/02/03 00:09:01;;;;;;;10.98;5.68;;;;;;;5.37;100.00;101113.78;5180125;28;20033;-71
2023/02/03 00:11:31;;;;;;;12.32;6.40;;;;;;;5.33;100.00;101111.19;5189427;28;20522;-72
2023/02/03 00:14:04;;;;;;;12.50;6.80;;;;;;;5.36;100.00;101101.66;5179079;28;20018;-71
2023/02/03 00:16:34;;;;;;;15.73;7.68;;;;;;;5.40;100.00;101105.97;5182992;28;20483;-72
2023/02/03 00:19:04;;;;;;;14.70;7.50;;;;;;;5.49;100.00;101100.72;5183002;28;20048;-72
2023/02/03 00:21:35;;;;;;;14.98;7.97;;;;;;;5.41;100.00;101095.56;5184242;28;20420;-71
2023/02/03 00:24:05;;;;;;;14.77;7.63;;;;;;;5.55;100.00;101088.56;5186986;28;20109;-72
2023/02/03 00:26:41;;;;;;;13.60;7.55;;;;;;;5.57;100.00;101085.97;5187387;28;20025;-71
2023/02/03 00:29:12;;;;;;;14.68;8.15;;;;;;;5.62;100.00;101079.03;5188710;28;20456;-72
2023/02/03 00:31:43;;;;;;;16.75;8.85;;;;;;;5.70;100.00;101077.22;5191622;28;20037;-71
2023/02/03 00:34:13;;;;;;;13.40;8.18;;;;;;;5.76;100.00;101074.59;5188097;28;20510;-71
2023/02/03 00:36:45;;;;;;;15.48;8.95;;;;;;;5.79;100.00;101072.88;5190298;28;20034;-71
2023/02/03 00:39:15;;;;;;;17.00;9.23;;;;;;;5.81;100.00;101072.84;5185810;28;20061;-72
2023/02/03 00:41:46;;;;;;;15.95;8.77;;;;;;;5.84;100.00;101071.09;5194908;28;20509;-72
2023/02/03 00:44:16;;;;;;;15.73;8.48;;;;;;;5.90;100.00;101062.41;5182597;28;20129;-71
2023/02/03 00:46:46;;;;;;;16.15;9.05;;;;;;;5.85;100.00;101057.25;5189859;28;20029;-71
2023/02/03 00:49:16;;;;;;;14.07;8.95;;;;;;;5.86;100.00;101056.38;5197900;28;20497;-71
2023/02/03 00:51:47;;;;;;;14.60;9.45;;;;;;;5.90;100.00;101055.47;5186595;28;20061;-71
2023/02/03 00:54:17;;;;;;;14.48;8.63;;;;;;;5.90;100.00;101067.59;5188737;28;20022;-71
2023/02/03 00:56:47;;;;;;;15.45;9.60;;;;;;;5.93;100.00;101062.38;5184787;28;20113;-71
2023/02/03 00:59:17;;;;;;;15.25;8.82;;;;;;;5.96;100.00;101050.25;5193751;28;20076;-71
2023/02/03 01:01:49;;;;;;;14.82;9.25;;;;;;;5.98;100.00;101052.81;5189729;28;20034;-71
2023/02/03 01:04:20;;;;;;;15.27;9.50;;;;;;;6.02;100.00;101054.50;5189253;28;20017;-71
2023/02/03 01:06:50;;;;;;;14.85;9.43;;;;;;;6.05;100.00;101059.69;5193100;28;20103;-71
2023/02/03 01:09:21;;;;;;;16.10;9.75;;;;;;;6.04;100.00;101060.53;5180463;28;20442;-71
2023/02/03 01:11:51;;;;;;;14.95;9.73;;;;;;;6.06;100.00;101049.25;5191360;28;20470;-72
2023/02/03 01:14:21;;;;;;;18.27;10.45;;;;;;;6.16;100.00;101050.03;5192098;28;20018;-73
2023/02/03 01:16:52;;;;;;;14.52;9.55;;;;;;;6.14;100.00;101046.59;5187105;28;20037;-71
2023/02/03 01:19:22;;;;;;;15.20;9.35;;;;;;;6.12;100.00;101048.34;5184893;28;20368;-71
2023/02/03 01:21:52;;;;;;;15.10;9.35;;;;;;;6.04;100.00;101042.34;5188093;28;20068;-72
2023/02/03 01:24:23;;;;;;;15.90;9.57;;;;;;;6.09;100.00;101030.22;5189591;28;20068;-70
2023/02/03 01:26:53;;;;;;;15.63;10.00;;;;;;;6.15;100.00;101024.97;5187482;28;20121;-71
2023/02/03 01:29:23;;;;;;;14.32;9.88;;;;;;;6.21;100.00;101030.06;5195286;28;20030;-71
2023/02/03 01:31:54;;;;;;;15.60;10.43;;;;;;;6.29;100.00;101023.91;5195303;28;20515;-71
2023/02/03 01:34:24;;;;;;;14.77;9.82;;;;;;;6.22;100.00;101027.47;5182358;28;20499;-72
2023/02/03 01:36:54;;;;;;;14.68;9.80;;;;;;;6.31;100.00;101035.16;5193623;28;20033;-72
2023/02/03 01:39:25;;;;;;;16.20;10.50;;;;;;;6.31;100.00;101040.38;5189984;28;20041;-72
2023/02/03 01:41:56;;;;;;;18.73;11.60;;;;;;;6.34;100.00;101039.44;5193861;28;20025;-71
2023/02/03 01:44:43;;;;;;;20.40;11.93;;;;;;;6.51;100.00;101037.53;5186541;28;20414;-71
2023/02/03 01:47:16;;;;;;;21.70;12.50;;;;;;;6.48;100.00;101028.06;5190480;28;20025;-72
2023/02/03 01:50:07;;;;;;;22.70;14.02;;;;;;;6.57;100.00;101025.31;5197346;28;20040;-71
2023/02/03 01:52:42;;;;;;;24.10;14.65;;;;;;;6.62;100.00;101017.50;5194822;28;20029;-71
2023/02/03 01:55:16;;;;;;;25.38;15.38;;;;;;;6.70;100.00;101010.44;5184993;28;20113;-71
2023/02/03 01:57:53;;;;;;;24.90;16.20;;;;;;;6.67;100.00;101010.50;5193523;22;20472;-75
2023/02/03 02:00:24;;;;;;;28.30;16.75;;;;;;;6.80;100.00;101006.84;5178177;28;20396;-73
2023/02/03 02:02:57;;;;;;;30.35;16.13;;;;;;;6.85;100.00;101012.84;5179427;28;20144;-73
2023/02/03 02:05:36;;;;;;;30.52;18.45;;;;;;;6.97;100.00;101004.88;5180089;28;20108;-73
2023/02/03 02:08:08;;;;;;;29.58;17.17;;;;;;;7.03;100.00;100997.00;5166364;28;20029;-73
2023/02/03 02:10:38;;;;;;;30.00;18.02;;;;;;;7.10;100.00;100998.66;5160796;28;20105;-73
2023/02/03 02:13:11;;;;;;;34.50;18.35;;;;;;;7.14;100.00;100987.31;5160033;28;20149;-74
2023/02/03 02:15:44;;;;;;;28.25;17.48;;;;;;;7.27;100.00;100978.44;5159437;28;20026;-74
2023/02/03 02:18:33;;;;;;;29.50;17.55;;;;;;;7.20;100.00;100971.63;5158708;28;20041;-73
2023/02/03 02:21:32;;;;;;;32.25;17.55;;;;;;;7.26;100.00;100981.94;5157163;28;20026;-75
2023/02/03 02:24:08;;;;;;;30.15;16.85;;;;;;;7.32;100.00;100978.34;5156745;28;20113;-73
2023/02/03 02:27:02;;;;;;;31.35;17.35;;;;;;;7.39;100.00;100969.53;5157864;28;20141;-73
2023/02/03 02:29:53;;;;;;;27.13;15.50;;;;;;;7.41;100.00;100966.94;5155403;28;20018;-72
2023/02/03 02:32:45;;;;;;;26.23;16.15;;;;;;;7.27;100.00;100953.31;5159472;28;20087;-74
2023/02/03 02:35:39;;;;;;;26.30;16.42;;;;;;;7.40;100.00;100942.69;5159121;28;20125;-74
2023/02/03 02:38:18;;;;;;;25.60;15.57;;;;;;;7.38;100.00;100941.84;5150845;28;20038;-74
2023/02/03 02:41:07;;;;;;;27.75;16.15;;;;;;;7.34;100.00;100934.13;5158777;28;20125;-74
2023/02/03 02:43:46;;;;;;;27.00;16.40;;;;;;;7.35;100.00;100936.69;5159449;28;20518;-74
2023/02/03 02:46:31;;;;;;;26.33;16.10;;;;;;;7.36;100.00;100925.41;5159443;28;20045;-76
2023/02/03 02:49:18;;;;;;;27.77;15.02;;;;;;;7.43;100.00;100919.25;5155341;28;20408;-75
2023/02/03 02:51:51;;;;;;;24.65;14.23;;;;;;;7.38;100.00;100913.22;5158304;28;20042;-73
2023/02/03 02:54:24;;;;;;;23.10;14.38;;;;;;;7.35;100.00;100909.84;5159142;28;20022;-74
2023/02/03 02:56:59;;;;;;;26.60;14.07;;;;;;;7.35;100.00;100897.69;5159325;28;20108;-75
2023/02/03 02:59:29;;;;;;;29.25;13.20;;;;;;;7.34;100.00;100882.97;5153893;28;20745;-73
2023/02/03 03:02:01;;;;;;;23.60;13.50;;;;;;;7.36;100.00;100876.00;5158721;28;20045;-73
2023/02/03 03:04:33;;;;;;;20.80;13.25;;;;;;;7.33;100.00;100872.63;5159454;28;20062;-76
2023/02/03 03:07:18;;;;;;;20.67;12.13;;;;;;;7.41;100.00;100861.22;5157688;28;20026;-74
2023/02/03 03:09:56;;;;;;;19.75;11.70;;;;;;;7.45;100.00;100860.25;5156325;28;20026;-73
2023/02/03 03:12:27;;;;;;;23.40;11.68;;;;;;;7.42;100.00;100854.25;5158725;28;20026;-75
2023/02/03 03:15:02;;;;;;;20.17;11.88;;;;;;;7.51;100.00;100839.34;5158515;28;20511;-74
2023/02/03 03:17:48;;;;;;;21.52;11.00;;;;;;;7.61;100.00;100851.28;5153549;28;20461;-73
2023/02/03 03:20:23;;;;;;;18.60;10.98;;;;;;;7.56;100.00;100862.66;5157370;28;20038;-74
2023/02/03 03:22:59;;;;;;;20.95;11.18;;;;;;;7.65;100.00;100868.53;5159321;28;20073;-74
2023/02/03 03:25:44;;;;;;;14.60;8.85;;;;;;;7.67;100.00;100882.38;5153023;28;20085;-73
2023/02/03 03:28:25;;;;;;;14.48;8.90;;;;;;;7.70;100.00;100887.50;5157783;28;20089;-76
2023/02/03 03:30:56;;;;;;;19.65;9.27;;;;;;;7.75;100.00;100896.09;5158903;28;20376;-74
2023/02/03 03:33:26;;;;;;;15.48;9.30;;;;;;;7.80;100.00;100906.41;5158952;28;20034;-73
2023/02/03 03:36:27;;;;;;;14.15;8.13;;;;;;;7.77;100.00;100898.66;5159055;28;20036;-73
2023/02/03 03:39:07;;;;;;;14.95;8.73;;;;;;;7.74;100.00;100891.75;5156894;28;20042;-73
2023/02/03 03:41:45;;;;;;;13.65;8.65;;;;;;;7.74;100.00;100883.94;5155938;28;20026;-73
2023/02/03 03:44:20;;;;;;;16.42;9.10;;;;;;;7.69;100.00;100865.00;5159287;28;20066;-75
2023/02/03 03:47:00;;;;;;;13.27;7.78;;;;;;;7.83;100.00;100867.31;5156704;28;20080;-73
2023/02/03 03:49:33;;;;;;;16.70;8.32;;;;;;;7.79;100.00;100876.06;5154233;28;20762;-74
2023/02/03 03:52:08;;;;;;;16.20;8.05;;;;;;;7.83;100.00;100878.59;5155229;28;20026;-75
2023/02/03 03:54:40;;;;;;;14.43;8.18;;;;;;;7.90;100.00;100874.13;5157467;28;20085;-75
2023/02/03 03:57:25;;;;;;;14.63;7.65;;;;;;;7.84;100.00;100876.84;5156640;28;20034;-73
2023/02/03 03:59:57;;;;;;;13.88;7.47;;;;;;;7.77;100.00;100862.25;5158879;28;20511;-73
2023/02/03 04:02:28;;;;;;;14.73;7.93;;;;;;;7.79;100.00;100850.94;5158075;28;20399;-74
2023/02/03 04:05:01;;;;;;;13.80;7.22;;;;;;;7.82;100.00;100840.44;5154574;28;20022;-75
2023/02/03 04:07:43;;;;;;;13.13;7.45;;;;;;;7.82;100.00;100850.84;5158953;28;20041;-75
2023/02/03 04:10:16;;;;;;;12.77;6.88;;;;;;;7.93;100.00;100846.31;5161714;28;20053;-75
2023/02/03 04:12:47;;;;;;;15.40;7.25;;;;;;;7.95;100.00;100862.75;5162509;28;20030;-73
2023/02/03 04:15:17;;;;;;;15.43;6.75;;;;;;;7.90;100.00;100853.31;5159728;28;20025;-75
2023/02/03 04:17:48;;;;;;;11.02;6.82;;;;;;;7.93;100.00;100851.50;5160693;28;20046;-73
2023/02/03 04:20:18;;;;;;;17.42;6.75;;;;;;;7.95;100.00;100841.03;5162371;28;20553;-73
2023/02/03 04:22:49;;;;;;;11.07;6.00;;;;;;;7.94;100.00;100842.81;5160977;28;20037;-73
2023/02/03 04:25:20;;;;;;;13.13;7.07;;;;;;;7.84;100.00;100837.84;5161417;28;20113;-73
2023/02/03 04:27:50;;;;;;;14.50;6.35;;;;;;;7.84;100.00;100832.63;5161510;28;20022;-74
2023/02/03 04:30:21;;;;;;;16.08;6.68;;;;;;;7.86;100.00;100831.69;5160817;28;20132;-74
2023/02/03 04:32:52;;;;;;;11.95;6.50;;;;;;;7.84;100.00;100823.06;5161918;28;20502;-73
2023/02/03 04:35:22;;;;;;;13.77;6.65;;;;;;;7.92;100.00;100823.78;5162244;28;20176;-73
2023/02/03 04:37:53;;;;;;;15.38;6.10;;;;;;;7.91;100.00;100808.19;5161835;28;20319;-73
2023/02/03 04:40:23;;;;;;;17.80;6.57;;;;;;;7.92;100.00;100807.28;5160378;28;20069;-75
2023/02/03 04:42:53;;;;;;;11.45;5.68;;;;;;;7.99;100.00;100821.88;5160315;28;20033;-75
2023/02/03 04:45:24;;;;;;;13.52;6.35;;;;;;;8.02;100.00;100812.25;5160478;28;20030;-75
2023/02/03 04:47:54;;;;;;;10.80;6.25;;;;;;;8.02;100.00;100821.84;5160159;28;20046;-73
2023/02/03 04:50:24;;;;;;;9.18;5.60;;;;;;;7.98;100.00;100817.56;5158257;28;20265;-73
2023/02/03 04:52:54;;;;;;;16.20;6.03;;;;;;;8.03;100.00;100808.78;5161167;28;20416;-73
2023/02/03 04:55:26;;;;;;;12.48;5.75;;;;;;;8.13;100.00;100814.63;5158865;28;20057;-72
2023/02/03 04:57:58;;;;;;;10.18;5.30;;;;;;;8.02;100.00;100821.84;5158845;28;20519;-74
2023/02/03 05:00:28;;;;;;;10.60;5.43;;;;;;;8.10;100.00;100810.38;5159550;28;20023;-76
2023/02/03 05:02:58;;;;;;;12.13;5.32;;;;;;;8.13;100.00;100799.00;5160434;28;20031;-73
2023/02/03 05:05:29;;;;;;;12.90;5.68;;;;;;;8.14;100.00;100805.94;5159833;28;20101;-73
2023/02/03 05:07:59;;;;;;;11.65;5.35;;;;;;;8.18;100.00;100792.00;5161775;28;20404;-74
2023/02/03 05:10:30;;;;;;;11.38;5.95;;;;;;;8.16;100.00;100784.19;5161010;28;20030;-75
2023/02/03 05:13:00;;;;;;;11.40;5.60;;;;;;;8.16;100.00;100797.22;5162622;28;20397;-75
2023/02/03 05:15:31;;;;;;;12.80;5.25;;;;;;;8.09;100.00;100789.56;5160405;28;20038;-73
2023/02/03 05:18:01;;;;;;;8.55;5.07;;;;;;;8.08;100.00;100783.50;5158935;28;20034;-73
2023/02/03 05:20:31;;;;;;;12.55;5.55;;;;;;;8.14;100.00;100770.34;5161583;28;20502;-73
2023/02/03 05:23:02;;;;;;;9.65;5.30;;;;;;;8.16;100.00;100773.78;5157509;28;20022;-75
2023/02/03 05:25:32;;;;;;;12.18;5.45;;;;;;;8.18;100.00;100763.38;5154537;28;20030;-73
2023/02/03 05:28:02;;;;;;;11.60;5.45;;;;;;;8.09;100.00;100756.59;5160839;28;20030;-73
2023/02/03 05:30:33;;;;;;;11.77;5.40;;;;;;;8.11;100.00;100754.81;5160945;28;20468;-73
2023/02/03 05:33:03;;;;;;;15.40;5.90;;;;;;;8.12;100.00;100745.25;5156583;28;20073;-74
2023/02/03 05:35:33;;;;;;;15.30;5.57;;;;;;;8.09;100.00;100756.59;5159168;28;20014;-73
2023/02/03 05:38:04;;;;;;;13.35;5.35;;;;;;;8.15;100.00;100760.78;5142230;28;20089;-76
2023/02/03 05:43:23;;;;;;;17.25;5.80;;;;;;;8.16;100.00;100745.16;5156986;28;20101;-77
2023/02/03 05:45:54;;;;;;;15.63;5.63;;;;;;;8.15;100.00;100720.00;5161193;28;20109;-74
2023/02/03 05:48:24;;;;;;;11.88;5.35;;;;;;;8.20;100.00;100712.13;5158192;28;20019;-73
2023/02/03 05:50:54;;;;;;;14.05;5.82;;;;;;;8.22;100.00;100715.56;5160676;28;20543;-73
2023/02/03 05:53:26;;;;;;;16.40;5.15;;;;;;;8.20;100.00;100722.53;5161252;28;20034;-75
2023/02/03 05:55:56;;;;;;;12.77;5.00;;;;;;;8.24;100.00;100725.00;5160962;28;20026;-74
2023/02/03 05:58:26;;;;;;;15.43;5.22;;;;;;;8.23;100.00;100722.47;5156838;28;20072;-75
2023/02/03 06:00:56;;;;;;;11.80;5.07;;;;;;;8.27;100.00;100722.38;5159301;28;20121;-73
2023/02/03 06:03:27;;;;;;;11.13;4.90;;;;;;;8.26;100.00;100738.88;5160668;28;20037;-74
2023/02/03 06:05:57;;;;;;;11.88;5.35;;;;;;;8.23;100.00;100735.47;5160428;28;20038;-74
2023/02/03 06:08:28;;;;;;;11.93;5.05;;;;;;;8.26;100.00;100743.22;5157491;28;20140;-74
2023/02/03 06:10:59;;;;;;;13.48;4.97;;;;;;;8.26;100.00;100743.22;5158398;28;20030;-75
2023/02/03 06:13:30;;;;;;;12.38;4.78;;;;;;;8.33;100.00;100730.03;5156805;28;20105;-76
2023/02/03 06:16:00;;;;;;;12.93;4.80;;;;;;;8.29;100.00;100731.00;5160263;28;20097;-75
2023/02/03 06:18:31;;;;;;;10.20;5.32;;;;;;;8.30;100.00;100729.22;5159203;28;20450;-74
2023/02/03 06:21:01;;;;;;;13.43;4.80;;;;;;;8.30;100.00;100735.31;5159999;28;20031;-74
2023/02/03 06:23:32;;;;;;;11.60;4.30;;;;;;;8.29;100.00;100731.00;5160246;28;20400;-74
2023/02/03 06:26:02;;;;;;;15.70;4.57;;;;;;;8.37;100.00;100733.41;5159034;28;20164;-72
2023/02/03 06:28:32;;;;;;;9.48;4.25;;;;;;;8.37;100.00;100749.03;5159100;28;20026;-74
2023/02/03 06:31:06;;;;;;;10.00;4.05;;;;;;;8.41;100.00;100732.44;5159344;28;20041;-76
2023/02/03 06:33:37;;;;;;;12.48;4.18;;;;;;;8.39;100.00;100737.66;5162906;28;20096;-75
2023/02/03 06:36:07;;;;;;;8.95;3.88;;;;;;;8.38;100.00;100742.94;5158370;28;20026;-74
2023/02/03 06:38:37;;;;;;;16.30;4.47;;;;;;;8.37;100.00;100736.84;5159329;28;20034;-73
2023/02/03 06:41:08;;;;;;;12.60;3.95;;;;;;;8.40;100.00;100743.75;5160174;28;20026;-73
2023/02/03 06:43:38;;;;;;;13.43;4.25;;;;;;;8.31;100.00;100726.59;5157172;28;20026;-73
2023/02/03 06:46:08;;;;;;;13.90;3.92;;;;;;;8.40;100.00;100734.16;5158790;28;20068;-75
2023/02/03 06:48:39;;;;;;;10.18;3.60;;;;;;;8.43;100.00;100723.72;5157767;28;20026;-74
2023/02/03 06:51:09;;;;;;;11.80;3.97;;;;;;;8.37;100.00;100705.59;5158873;28;20050;-74
2023/02/03 06:53:39;;;;;;;11.57;3.67;;;;;;;8.40;100.00;100710.75;5153099;28;20030;-75
2023/02/03 06:56:09;;;;;;;11.43;3.65;;;;;;;8.32;100.00;100702.28;5154997;28;20026;-75
2023/02/03 06:58:40;;;;;;;9.88;3.83;;;;;;;8.35;100.00;100703.97;5158189;28;20022;-73
2023/02/03 07:01:10;;;;;;;11.80;4.00;;;;;;;8.26;100.00;100702.44;5157757;28;20074;-73
2023/02/03 07:03:40;;;;;;;11.00;3.85;;;;;;;8.28;100.00;100692.84;5168225;28;20042;-75
2023/02/03 07:06:11;;;;;;;12.27;3.72;;;;;;;8.31;100.00;100684.94;5158436;28;20279;-74
2023/02/03 07:08:41;;;;;;;11.00;4.57;;;;;;;8.35;100.00;100688.34;5158298;28;20395;-75
2023/02/03 07:11:12;;;;;;;11.25;4.20;;;;;;;8.29;100.00;100685.84;5159073;28;20030;-74
2023/02/03 07:13:42;;;;;;;13.45;4.13;;;;;;;8.28;100.00;100679.81;5157512;28;20548;-74
2023/02/03 07:16:13;;;;;;;12.63;3.97;;;;;;;8.27;100.00;100677.22;5157600;28;20092;-74
2023/02/03 07:18:43;;;;;;;11.45;4.15;;;;;;;8.27;100.00;100666.81;5158336;28;20037;-73
2023/02/03 07:21:15;;;;;;;13.10;4.28;;;;;;;8.24;100.00;100670.34;5156999;28;20069;-74
2023/02/03 07:23:47;;;;;;;10.13;3.75;;;;;;;8.29;100.00;100668.50;5158182;28;20492;-74
2023/02/03 07:26:17;;;;;;;12.30;3.30;;;;;;;8.31;100.00;100658.91;5157979;28;20053;-73
2023/02/03 07:28:48;;;;;;;10.32;3.55;;;;;;;8.32;100.00;100655.41;5157944;28;20022;-71
2023/02/03 07:31:19;;;;;;;8.70;3.75;;;;;;;8.32;100.00;100665.81;5157291;28;20026;-74
2023/02/03 07:33:49;;;;;;;15.50;3.22;;;;;;;8.32;100.00;100665.81;5158775;28;20026;-73
2023/02/03 07:36:19;;;;;;;8.30;3.42;;;;;;;8.35;100.00;100676.16;5158208;28;20038;-74
2023/02/03 07:38:49;;;;;;;8.50;3.30;;;;;;;8.34;100.00;100674.44;5156582;28;20541;-73
2023/02/03 07:41:20;;;;;;;9.82;3.15;;;;;;;8.33;100.00;100671.88;5159180;28;20357;-73
2023/02/03 07:43:50;;;;;;;8.13;3.22;;;;;;;8.34;100.00;100661.44;5158561;28;20092;-72
2023/02/03 07:46:20;;;;;;;9.20;3.40;;;;;;;8.37;100.00;100653.53;5157570;28;20117;-73
2023/02/03 07:48:51;;;;;;;9.38;4.25;;;;;;;8.34;100.00;100673.56;5158522;28;20026;-74
2023/02/03 07:51:21;;;;;;;8.25;4.03;;;;;;;8.32;100.00;100662.34;5158743;28;20038;-73
2023/02/03 07:53:51;;;;;;;7.47;3.50;;;;;;;8.31;100.00;100658.91;5158400;28;20108;-75
2023/02/03 07:56:22;;;;;;;6.20;3.00;;;;;;;8.36;100.00;100646.63;5158738;28;20034;-75
2023/02/03 07:58:52;;;;;;;5.75;3.00;;;;;;;8.38;100.00;100643.97;5194796;23;20048;-72
2023/02/03 08:01:22;;;;;;;7.63;3.00;;;;;;;8.37;100.00;100637.06;5199117;28;20026;-71
2023/02/03 08:03:53;;;;;;;7.75;3.30;;;;;;;8.32;100.00;100642.38;5202907;28;20025;-71
2023/02/03 08:06:23;;;;;;;5.35;2.80;;;;;;;8.35;100.00;100625.84;5199921;28;20029;-71
2023/02/03 08:08:53;;;;;;;7.85;3.33;;;;;;;8.34;100.00;100617.16;5192705;28;20026;-71
2023/02/03 08:11:23;;;;;;;6.30;3.20;;;;;;;8.35;100.00;100623.25;5191462;28;20043;-73
2023/02/03 08:13:54;;;;;;;6.20;2.70;;;;;;;8.37;100.00;100627.50;5184372;28;20157;-71
2023/02/03 08:16:24;;;;;;;6.68;3.30;;;;;;;8.34;100.00;100626.72;5183653;28;20095;-71
2023/02/03 08:18:54;;;;;;;4.32;2.40;;;;;;;8.35;100.00;100637.09;5180320;28;20029;-72
2023/02/03 08:21:25;;;;;;;6.93;2.53;;;;;;;8.38;100.00;100624.00;5188362;28;20164;-69
2023/02/03 08:23:55;;;;;;;5.43;2.55;;;;;;;8.37;100.00;100637.91;5184967;28;20045;-71
2023/02/03 08:26:25;;;;;;;5.43;2.67;;;;;;;8.37;100.00;100627.50;5187064;28;20850;-71
2023/02/03 08:28:56;;;;;;;6.40;2.60;;;;;;;8.37;100.00;100640.50;5187056;28;20510;-73
2023/02/03 08:31:26;;;;;;;6.20;2.22;;;;;;;8.39;100.00;100633.50;5190677;28;20384;-73
2023/02/03 08:33:56;;;;;;;3.97;2.25;;;;;;;8.40;100.00;100639.59;5183790;28;20022;-71
2023/02/03 08:36:27;;;;;;;8.35;2.55;;;;;;;8.37;100.00;100643.13;5182607;28;20038;-71
2023/02/03 08:38:57;;;;;;;4.88;2.05;;;;;;;8.42;100.00;100641.25;5187460;28;20325;-71
2023/02/03 08:41:27;;;;;;;4.28;1.80;;;;;;;8.35;100.00;100629.28;5192028;28;20032;-71
2023/02/03 08:43:58;;;;;;;4.43;2.30;;;;;;;8.43;100.00;100634.28;5184518;28;20053;-71
2023/02/03 08:46:29;;;;;;;2.88;1.73;;;;;;;8.45;100.00;100633.38;5186232;28;20033;-71
2023/02/03 08:49:01;;;;;;;4.97;2.15;;;;;;;8.46;100.00;100629.88;5186418;28;20030;-73
2023/02/03 08:51:31;;;;;;;2.85;1.63;;;;;;;8.46;100.00;100613.38;5185205;28;20079;-72
2023/02/03 08:54:02;;;;;;;3.20;1.77;;;;;;;8.44;100.00;100622.97;5186970;28;20089;-72
2023/02/03 08:56:33;;;;;;;4.07;2.13;;;;;;;8.56;100.00;100623.50;5195919;28;20061;-71
2023/02/03 08:59:03;;;;;;;3.70;1.83;;;;;;;8.55;100.00;100627.00;5191706;28;20108;-72
2023/02/03 09:01:33;;;;;;;3.58;1.83;;;;;;;8.57;100.00;100611.34;5190574;28;20030;-72
2023/02/03 09:04:06;;;;;;;4.45;1.98;;;;;;;8.57;100.00;100601.78;5188121;28;20056;-72
2023/02/03 09:06:36;;;;;;;5.28;2.53;;;;;;;8.57;100.00;100604.38;5190431;28;20466;-72
2023/02/03 09:09:07;;;;;;;6.25;2.70;;;;;;;8.64;100.00;100600.72;5182720;28;20112;-72
2023/02/03 09:11:37;;;;;;;6.28;2.72;;;;;;;8.67;100.00;100604.97;5191139;28;20025;-71
2023/02/03 09:14:08;;;;;;;5.20;2.80;;;;;;;8.65;100.00;100607.66;5185853;28;20030;-72
2023/02/03 09:16:38;;;;;;;5.57;2.13;;;;;;;8.69;100.00;100604.06;5186962;28;20052;-71
2023/02/03 09:19:09;;;;;;;5.75;2.80;;;;;;;8.69;100.00;100603.22;5185290;28;20584;-71
2023/02/03 09:21:40;;;;;;;7.88;2.70;;;;;;;8.73;100.00;100599.63;5188453;28;20030;-73
2023/02/03 09:24:10;;;;;;;4.78;2.45;;;;;;;8.78;100.00;100601.22;5187531;28;20036;-72
2023/02/03 09:26:40;;;;;;;8.43;3.00;;;;;;;8.77;100.00;100588.22;5190388;28;20526;-72
2023/02/03 09:29:11;;;;;;;6.40;3.10;;;;;;;8.78;100.00;100608.16;5193645;28;20132;-72
2023/02/03 09:31:42;;;;;;;6.57;3.00;;;;;;;8.77;100.00;100596.91;5192513;28;20045;-72
2023/02/03 09:34:12;;;;;;;10.65;3.22;;;;;;;8.67;100.00;100594.56;5185156;28;20053;-72
2023/02/03 09:36:43;;;;;;;6.63;3.25;;;;;;;8.74;100.00;100617.78;5186032;28;20026;-70
2023/02/03 09:39:14;;;;;;;9.38;3.20;;;;;;;8.68;100.00;100604.94;5188049;28;20036;-71
2023/02/03 09:41:50;;;;;;;9.20;3.08;;;;;;;8.69;100.00;100624.91;5191601;28;20029;-72
2023/02/03 09:44:36;;;;;;;10.10;4.40;;;;;;;8.62;100.00;100592.09;5183932;28;20504;-72
2023/02/03 09:47:15;;;;;;;11.38;3.38;;;;;;;8.73;100.00;100595.25;5185584;28;20034;-71
2023/02/03 09:49:56;;;;;;;15.68;4.80;;;;;;;8.71;100.00;100591.84;5187999;28;20038;-71
2023/02/03 09:52:31;;;;;;;13.75;5.13;;;;;;;8.78;100.00;100606.41;5181101;28;20543;-71
2023/02/03 09:55:19;;;;;;;9.50;4.15;;;;;;;8.81;100.00;100598.50;5184375;28;20022;-73
2023/02/03 09:57:59;;;;;;;14.27;4.50;;;;;;;8.86;100.00;100590.56;5180350;28;20091;-71
2023/02/03 10:00:39;;;;;;;11.13;3.78;;;;;;;8.91;100.00;100583.47;5190091;28;20033;-72
2023/02/03 10:03:31;;;;;;;15.35;5.75;;;;;;;8.95;100.00;100601.59;5188259;28;20033;-72
2023/02/03 10:06:33;;;;;;;10.13;3.42;;;;;;;8.96;100.00;100608.50;5184348;28;20140;-72
2023/02/03 10:09:23;;;;;;;12.27;3.95;;;;;;;8.95;100.00;100605.94;5179149;28;20042;-71
2023/02/03 10:12:10;;;;;;;14.70;3.88;;;;;;;8.98;100.00;100606.72;5189292;28;20517;-72
2023/02/03 10:14:59;;;;;;;15.60;4.35;;;;;;;8.97;100.00;100615.44;5181328;28;20026;-72
2023/02/03 10:17:39;;;;;;;18.67;5.95;;;;;;;8.97;100.00;100594.56;5177148;28;20026;-72
2023/02/03 10:20:32;;;;;;;14.73;5.30;;;;;;;8.92;100.00;100638.13;5187170;28;20038;-71
2023/02/03 10:23:10;;;;;;;23.67;8.38;;;;;;;8.95;100.00;100617.22;5185213;28;20026;-71
2023/02/03 10:25:53;;;;;;;20.10;7.13;;;;;;;8.91;100.00;100596.50;5180546;28;20376;-71
2023/02/03 10:28:29;;;;;;;15.95;5.55;;;;;;;8.81;100.00;100618.47;5187980;28;20029;-71
2023/02/03 10:31:03;;;;;;;14.20;3.80;;;;;;;8.90;100.00;100634.72;5185444;28;20261;-71
2023/02/03 10:33:33;;;;;;;8.48;2.88;;;;;;;8.94;100.00;100636.38;5179554;28;20103;-71
2023/02/03 10:36:29;;;;;;;8.82;2.92;;;;;;;8.99;100.00;100647.50;5191096;28;20029;-71
2023/02/03 10:39:07;;;;;;;9.55;2.80;;;;;;;8.98;100.00;100639.72;5187526;28;20018;-71
2023/02/03 10:41:37;;;;;;;7.72;2.40;;;;;;;8.96;100.00;100631.97;5179018;28;20029;-72
2023/02/03 10:44:12;;;;;;;6.38;2.05;;;;;;;8.96;100.00;100621.53;5187021;28;20044;-71
2023/02/03 10:46:44;;;;;;;14.93;3.08;;;;;;;8.99;100.00;100625.78;5190599;28;20552;-72
2023/02/03 10:49:15;;;;;;;11.48;3.35;;;;;;;9.00;100.00;100633.56;5188364;28;20030;-72
2023/02/03 10:51:56;;;;;;;12.10;2.72;;;;;;;9.00;100.00;100664.00;5187008;28;20487;-71
2023/02/03 10:54:27;;;;;;;11.30;2.85;;;;;;;8.84;100.00;100684.41;5188766;28;20021;-71
2023/02/03 10:57:03;;;;;;;13.90;3.28;;;;;;;8.77;100.00;100700.25;5188985;28;20048;-72
2023/02/03 10:59:36;;;;;;;10.73;2.80;;;;;;;8.73;100.00;100683.84;5182264;28;20366;-72
2023/02/03 11:02:18;;;;;;;10.80;2.25;;;;;;;8.57;100.00;100669.50;5183839;28;20065;-71
2023/02/03 11:05:08;;;;;;;12.13;2.45;;;;;;;8.57;100.00;100672.09;5183673;28;20053;-71
2023/02/03 11:07:39;;;;;;;7.93;2.20;;;;;;;8.59;100.00;100657.28;5180898;28;20109;-71
2023/02/03 11:10:24;;;;;;;12.98;2.63;;;;;;;8.58;100.00;100667.75;5185869;28;20506;-72
2023/02/03 11:13:24;;;;;;;12.52;3.40;;;;;;;8.59;100.00;100666.88;5189314;28;20053;-73
2023/02/03 11:16:02;;;;;;;12.80;3.53;;;;;;;8.68;100.00;100685.72;5186867;28;20403;-72
2023/02/03 11:18:38;;;;;;;16.77;5.15;;;;;;;8.74;100.00;100695.97;5180889;28;20053;-72
2023/02/03 11:21:16;;;;;;;13.82;3.10;;;;;;;8.75;100.00;100691.63;5183931;28;20533;-73
2023/02/03 11:23:49;;;;;;;13.65;2.75;;;;;;;8.74;100.00;100698.56;5186160;28;20041;-72
2023/02/03 11:26:24;;;;;;;10.80;2.58;;;;;;;8.79;100.00;100699.31;5185695;28;20415;-72
2023/02/03 11:28:58;;;;;;;14.85;3.00;;;;;;;8.80;100.00;100690.63;5188265;28;20024;-72
2023/02/03 11:31:32;;;;;;;11.77;2.92;;;;;;;8.82;100.00;100694.03;5192581;28;20461;-72
2023/02/03 11:34:06;;;;;;;15.45;4.35;;;;;;;8.83;100.00;100693.13;5179585;28;20391;-72
2023/02/03 11:36:36;;;;;;;15.35;2.72;;;;;;;8.82;100.00;100707.06;5187438;28;20076;-71
2023/02/03 11:39:17;;;;;;;12.52;2.95;;;;;;;8.92;100.00;100689.41;5183709;28;20029;-72
2023/02/03 11:41:48;;;;;;;15.15;2.60;;;;;;;8.93;100.00;100665.06;5186126;28;20522;-71
2023/02/03 11:44:21;;;;;;;16.13;2.67;;;;;;;9.00;100.00;100683.09;5186479;28;20033;-72
2023/02/03 11:46:56;;;;;;;12.98;2.58;;;;;;;9.04;100.00;100695.16;5187534;28;20044;-73
2023/02/03 11:49:29;;;;;;;15.80;2.85;;;;;;;9.03;100.00;100713.47;5188049;28;20025;-73